Roosevelt, Oklahoma
Current Conditions -  °F | °C
As of 12:53 PM on Sunday 23 Nov 2014 (Local Time) from KHBR Reporting Station
Scattered Clouds Scattered Clouds  
Wind Chill: 59°   Ceiling: Unl
Heat Index: 59°   Visibility: 10mi
Dew Point: 46°   Wind: 29mph
Humidity: 62%   Direction: 340°NNW
Pressure: 29.4"   Gusts: 37mph
Location:  34.85°N, 99.02°W
Report Text: KHBR 231853Z AUTO 34025G32KT 10SM SCT034 15/08 A2940 RMK AO2 PK WND 34032/1849 SLP949 T01500078
Loading
Personal Weather Stations






























Interactive Weather Map New forecast layout! Learn more

10-Day Weather Forecast

Advertisements
Track Severe Weather on mobile